Terminal Aerodrome Forecast
Issued by NWS

Home | Current Version | Previous Version | Graphics & Text | Print | Product List | Glossary On
Versions: 1 2 3 4 5 6 7 8 9 10 11 12 13 14 15 16 17 18
000
FTUS43 KABR 241100
TAFMBG
TAF
KMBG 241120Z 2412/2512 30005KT P6SM SCT010 BKN019 OVC024
     FM241400 28006KT P6SM SCT019
     FM241600 26017G26KT P6SM SCT025
     FM250200 27010KT P6SM FEW250=

USA.gov is the U.S. government's official web portal to all federal, state and local government web resources and services.